sensor_id;sensor_type;location;lat;lon;timestamp;temperature;humidity
68556;HTU21D;55544;51.032;5.866;2023-06-22T00:00:51;24.64;52.38
68556;HTU21D;55544;51.032;5.866;2023-06-22T00:03:19;24.54;52.97
68556;HTU21D;55544;51.032;5.866;2023-06-22T00:05:46;24.54;53.06
68556;HTU21D;55544;51.032;5.866;2023-06-22T00:08:12;24.55;53.08
68556;HTU21D;55544;51.032;5.866;2023-06-22T00:10:38;24.42;53.07
68556;HTU21D;55544;51.032;5.866;2023-06-22T00:13:06;24.31;53.72
68556;HTU21D;55544;51.032;5.866;2023-06-22T00:15:32;24.31;53.60
68556;HTU21D;55544;51.032;5.866;2023-06-22T00:17:58;24.33;53.39
68556;HTU21D;55544;51.032;5.866;2023-06-22T00:20:25;24.41;53.30
68556;HTU21D;55544;51.032;5.866;2023-06-22T00:22:55;24.46;53.75
68556;HTU21D;55544;51.032;5.866;2023-06-22T00:25:21;24.49;54.14
68556;HTU21D;55544;51.032;5.866;2023-06-22T00:27:47;24.42;54.13
68556;HTU21D;55544;51.032;5.866;2023-06-22T00:30:13;24.32;54.84
68556;HTU21D;55544;51.032;5.866;2023-06-22T00:32:39;24.30;54.98
68556;HTU21D;55544;51.032;5.866;2023-06-22T00:35:06;24.34;55.02
68556;HTU21D;55544;51.032;5.866;2023-06-22T00:37:32;24.24;55.52
68556;HTU21D;55544;51.032;5.866;2023-06-22T00:39:58;24.04;55.87
68556;HTU21D;55544;51.032;5.866;2023-06-22T00:42:24;23.88;56.42
68556;HTU21D;55544;51.032;5.866;2023-06-22T00:44:50;23.72;56.16
68556;HTU21D;55544;51.032;5.866;2023-06-22T00:47:18;23.69;56.37
68556;HTU21D;55544;51.032;5.866;2023-06-22T00:49:47;23.66;55.81
68556;HTU21D;55544;51.032;5.866;2023-06-22T00:52:14;23.65;55.86
68556;HTU21D;55544;51.032;5.866;2023-06-22T00:54:51;23.68;55.42
68556;HTU21D;55544;51.032;5.866;2023-06-22T00:57:17;23.60;55.87
68556;HTU21D;55544;51.032;5.866;2023-06-22T00:59:48;23.67;55.84
68556;HTU21D;55544;51.032;5.866;2023-06-22T01:02:14;23.80;56.05
68556;HTU21D;55544;51.032;5.866;2023-06-22T01:04:40;23.81;56.69
68556;HTU21D;55544;51.032;5.866;2023-06-22T01:09:53;23.56;57.30
68556;HTU21D;55544;51.032;5.866;2023-06-22T01:12:22;23.57;58.13
68556;HTU21D;55544;51.032;5.866;2023-06-22T01:15:13;23.55;58.87
68556;HTU21D;55544;51.032;5.866;2023-06-22T01:17:43;23.64;58.58
68556;HTU21D;55544;51.032;5.866;2023-06-22T01:20:13;23.70;58.39
68556;HTU21D;55544;51.032;5.866;2023-06-22T01:23:06;23.66;58.61
68556;HTU21D;55544;51.032;5.866;2023-06-22T01:28:24;23.38;59.13
68556;HTU21D;55544;51.032;5.866;2023-06-22T01:30:52;23.28;59.32
68556;HTU21D;55544;51.032;5.866;2023-06-22T01:33:33;23.22;60.04
68556;HTU21D;55544;51.032;5.866;2023-06-22T01:36:01;23.23;60.06
68556;HTU21D;55544;51.032;5.866;2023-06-22T01:38:29;23.17;60.41
68556;HTU21D;55544;51.032;5.866;2023-06-22T01:40:57;23.25;60.22
68556;HTU21D;55544;51.032;5.866;2023-06-22T01:43:25;23.29;59.83
68556;HTU21D;55544;51.032;5.866;2023-06-22T01:45:53;23.34;59.61
68556;HTU21D;55544;51.032;5.866;2023-06-22T01:48:19;23.34;59.36
68556;HTU21D;55544;51.032;5.866;2023-06-22T01:50:46;23.32;58.66
68556;HTU21D;55544;51.032;5.866;2023-06-22T01:53:12;23.32;58.37
68556;HTU21D;55544;51.032;5.866;2023-06-22T01:55:37;23.41;58.29
68556;HTU21D;55544;51.032;5.866;2023-06-22T01:58:03;23.45;57.94
68556;HTU21D;55544;51.032;5.866;2023-06-22T02:00:34;23.41;57.93
68556;HTU21D;55544;51.032;5.866;2023-06-22T02:03:17;23.42;57.90
68556;HTU21D;55544;51.032;5.866;2023-06-22T02:06:04;23.49;57.92
68556;HTU21D;55544;51.032;5.866;2023-06-22T02:08:41;23.55;57.61
68556;HTU21D;55544;51.032;5.866;2023-06-22T02:11:13;23.47;58.12
68556;HTU21D;55544;51.032;5.866;2023-06-22T02:13:40;23.40;58.50
68556;HTU21D;55544;51.032;5.866;2023-06-22T02:16:13;23.32;58.67
68556;HTU21D;55544;51.032;5.866;2023-06-22T02:18:49;23.26;59.19
68556;HTU21D;55544;51.032;5.866;2023-06-22T02:21:21;23.29;59.22
68556;HTU21D;55544;51.032;5.866;2023-06-22T02:23:47;23.36;59.16
68556;HTU21D;55544;51.032;5.866;2023-06-22T02:26:13;23.38;59.28
68556;HTU21D;55544;51.032;5.866;2023-06-22T02:28:39;23.42;59.25
68556;HTU21D;55544;51.032;5.866;2023-06-22T02:31:05;23.45;59.23
68556;HTU21D;55544;51.032;5.866;2023-06-22T02:33:30;23.49;59.33
68556;HTU21D;55544;51.032;5.866;2023-06-22T02:35:56;23.55;59.31
68556;HTU21D;55544;51.032;5.866;2023-06-22T02:38:22;23.58;59.18
68556;HTU21D;55544;51.032;5.866;2023-06-22T02:40:51;23.60;59.09
68556;HTU21D;55544;51.032;5.866;2023-06-22T02:43:17;23.58;59.22
68556;HTU21D;55544;51.032;5.866;2023-06-22T02:45:44;23.56;59.26
68556;HTU21D;55544;51.032;5.866;2023-06-22T02:48:10;23.53;59.49
68556;HTU21D;55544;51.032;5.866;2023-06-22T02:50:36;23.53;59.70
68556;HTU21D;55544;51.032;5.866;2023-06-22T02:53:03;23.53;59.69
68556;HTU21D;55544;51.032;5.866;2023-06-22T02:55:33;23.54;59.69
68556;HTU21D;55544;51.032;5.866;2023-06-22T02:57:59;23.52;59.80
68556;HTU21D;55544;51.032;5.866;2023-06-22T03:00:27;23.52;59.88
68556;HTU21D;55544;51.032;5.866;2023-06-22T03:02:57;23.46;60.20
68556;HTU21D;55544;51.032;5.866;2023-06-22T03:05:23;23.44;60.43
68556;HTU21D;55544;51.032;5.866;2023-06-22T03:07:49;23.44;60.44
68556;HTU21D;55544;51.032;5.866;2023-06-22T03:10:16;23.42;60.52
68556;HTU21D;55544;51.032;5.866;2023-06-22T03:12:42;23.40;60.52
68556;HTU21D;55544;51.032;5.866;2023-06-22T03:15:11;23.39;60.68
68556;HTU21D;55544;51.032;5.866;2023-06-22T03:17:38;23.36;60.83
68556;HTU21D;55544;51.032;5.866;2023-06-22T03:20:07;23.32;60.99
68556;HTU21D;55544;51.032;5.866;2023-06-22T03:22:42;23.29;61.14
68556;HTU21D;55544;51.032;5.866;2023-06-22T03:25:09;23.25;61.34
68556;HTU21D;55544;51.032;5.866;2023-06-22T03:27:37;23.20;61.64
68556;HTU21D;55544;51.032;5.866;2023-06-22T03:30:03;23.10;61.99
68556;HTU21D;55544;51.032;5.866;2023-06-22T03:32:30;23.10;62.24
68556;HTU21D;55544;51.032;5.866;2023-06-22T03:34:57;23.12;62.19
68556;HTU21D;55544;51.032;5.866;2023-06-22T03:37:26;23.20;62.18
68556;HTU21D;55544;51.032;5.866;2023-06-22T03:39:52;23.23;62.07
68556;HTU21D;55544;51.032;5.866;2023-06-22T03:42:17;23.25;62.03
68556;HTU21D;55544;51.032;5.866;2023-06-22T03:44:43;23.27;61.99
68556;HTU21D;55544;51.032;5.866;2023-06-22T03:47:09;23.29;62.02
68556;HTU21D;55544;51.032;5.866;2023-06-22T03:49:35;23.29;62.04
68556;HTU21D;55544;51.032;5.866;2023-06-22T03:52:02;23.31;62.09
68556;HTU21D;55544;51.032;5.866;2023-06-22T03:54:29;23.34;62.12
68556;HTU21D;55544;51.032;5.866;2023-06-22T03:56:57;23.34;62.14
68556;HTU21D;55544;51.032;5.866;2023-06-22T03:59:23;23.36;62.20
68556;HTU21D;55544;51.032;5.866;2023-06-22T04:01:49;23.34;62.27
68556;HTU21D;55544;51.032;5.866;2023-06-22T04:04:14;23.31;62.46
68556;HTU21D;55544;51.032;5.866;2023-06-22T04:06:40;23.31;62.57
68556;HTU21D;55544;51.032;5.866;2023-06-22T04:09:06;23.29;62.65
68556;HTU21D;55544;51.032;5.866;2023-06-22T04:11:32;23.29;62.73
68556;HTU21D;55544;51.032;5.866;2023-06-22T04:13:57;23.27;62.79
68556;HTU21D;55544;51.032;5.866;2023-06-22T04:16:23;23.24;63.03
68556;HTU21D;55544;51.032;5.866;2023-06-22T04:18:49;23.23;63.19
68556;HTU21D;55544;51.032;5.866;2023-06-22T04:21:15;23.22;63.27
68556;HTU21D;55544;51.032;5.866;2023-06-22T04:23:40;23.22;63.40
68556;HTU21D;55544;51.032;5.866;2023-06-22T04:26:06;23.20;63.53
68556;HTU21D;55544;51.032;5.866;2023-06-22T04:28:31;23.20;63.56
68556;HTU21D;55544;51.032;5.866;2023-06-22T04:31:01;23.20;63.82
68556;HTU21D;55544;51.032;5.866;2023-06-22T04:33:28;23.23;63.89
68556;HTU21D;55544;51.032;5.866;2023-06-22T04:35:57;23.28;63.85
68556;HTU21D;55544;51.032;5.866;2023-06-22T04:38:24;23.29;63.92
68556;HTU21D;55544;51.032;5.866;2023-06-22T04:40:50;23.32;63.91
68556;HTU21D;55544;51.032;5.866;2023-06-22T04:43:16;23.31;63.95
68556;HTU21D;55544;51.032;5.866;2023-06-22T04:45:42;23.31;63.92
68556;HTU21D;55544;51.032;5.866;2023-06-22T04:48:08;23.34;63.93
68556;HTU21D;55544;51.032;5.866;2023-06-22T04:50:36;23.36;63.92
68556;HTU21D;55544;51.032;5.866;2023-06-22T04:53:04;23.39;63.76
68556;HTU21D;55544;51.032;5.866;2023-06-22T04:55:32;23.43;63.73
68556;HTU21D;55544;51.032;5.866;2023-06-22T04:57:57;23.45;63.71
68556;HTU21D;55544;51.032;5.866;2023-06-22T05:00:31;23.46;63.68
68556;HTU21D;55544;51.032;5.866;2023-06-22T05:02:57;23.50;63.51
68556;HTU21D;55544;51.032;5.866;2023-06-22T05:05:24;23.49;63.45
68556;HTU21D;55544;51.032;5.866;2023-06-22T05:07:51;23.55;63.49
68556;HTU21D;55544;51.032;5.866;2023-06-22T05:10:21;23.59;63.36
68556;HTU21D;55544;51.032;5.866;2023-06-22T05:12:47;23.62;63.22
68556;HTU21D;55544;51.032;5.866;2023-06-22T05:15:12;23.69;63.07
68556;HTU21D;55544;51.032;5.866;2023-06-22T05:17:38;23.71;62.88
68556;HTU21D;55544;51.032;5.866;2023-06-22T05:20:12;23.72;62.87
68556;HTU21D;55544;51.032;5.866;2023-06-22T05:22:38;23.72;62.95
68556;HTU21D;55544;51.032;5.866;2023-06-22T05:25:09;23.74;62.94
68556;HTU21D;55544;51.032;5.866;2023-06-22T05:27:36;23.76;63.10
68556;HTU21D;55544;51.032;5.866;2023-06-22T05:30:09;23.76;63.22
68556;HTU21D;55544;51.032;5.866;2023-06-22T05:32:35;23.75;63.26
68556;HTU21D;55544;51.032;5.866;2023-06-22T05:35:02;23.76;63.29
68556;HTU21D;55544;51.032;5.866;2023-06-22T05:37:28;23.81;62.89
68556;HTU21D;55544;51.032;5.866;2023-06-22T05:39:54;23.82;62.71
68556;HTU21D;55544;51.032;5.866;2023-06-22T05:42:21;23.85;62.62
68556;HTU21D;55544;51.032;5.866;2023-06-22T05:44:47;23.86;62.63
68556;HTU21D;55544;51.032;5.866;2023-06-22T05:47:13;23.88;62.53
68556;HTU21D;55544;51.032;5.866;2023-06-22T05:49:38;23.89;62.78
68556;HTU21D;55544;51.032;5.866;2023-06-22T05:52:04;23.92;63.26
68556;HTU21D;55544;51.032;5.866;2023-06-22T05:54:31;23.91;63.73
68556;HTU21D;55544;51.032;5.866;2023-06-22T05:56:57;23.89;64.27
68556;HTU21D;55544;51.032;5.866;2023-06-22T05:59:22;23.89;64.91
68556;HTU21D;55544;51.032;5.866;2023-06-22T06:01:48;23.88;65.22
68556;HTU21D;55544;51.032;5.866;2023-06-22T06:04:20;23.86;65.17
68556;HTU21D;55544;51.032;5.866;2023-06-22T06:06:46;23.87;65.33
68556;HTU21D;55544;51.032;5.866;2023-06-22T06:09:13;23.84;65.08
68556;HTU21D;55544;51.032;5.866;2023-06-22T06:11:40;23.80;65.36
68556;HTU21D;55544;51.032;5.866;2023-06-22T06:14:05;23.76;65.65
68556;HTU21D;55544;51.032;5.866;2023-06-22T06:16:32;23.70;66.00
68556;HTU21D;55544;51.032;5.866;2023-06-22T06:18:57;23.67;66.33
68556;HTU21D;55544;51.032;5.866;2023-06-22T06:21:24;23.69;66.24
68556;HTU21D;55544;51.032;5.866;2023-06-22T06:23:50;23.68;66.05
68556;HTU21D;55544;51.032;5.866;2023-06-22T06:26:16;23.69;66.05
68556;HTU21D;55544;51.032;5.866;2023-06-22T06:28:43;23.71;65.99
68556;HTU21D;55544;51.032;5.866;2023-06-22T06:31:09;23.73;66.04
68556;HTU21D;55544;51.032;5.866;2023-06-22T06:33:35;23.76;66.34
68556;HTU21D;55544;51.032;5.866;2023-06-22T06:36:01;23.84;66.30
68556;HTU21D;55544;51.032;5.866;2023-06-22T06:38:31;23.83;66.26
68556;HTU21D;55544;51.032;5.866;2023-06-22T06:40:58;23.85;66.31
68556;HTU21D;55544;51.032;5.866;2023-06-22T06:43:24;23.89;66.33
68556;HTU21D;55544;51.032;5.866;2023-06-22T06:45:50;23.97;66.23
68556;HTU21D;55544;51.032;5.866;2023-06-22T06:48:16;24.02;66.24
68556;HTU21D;55544;51.032;5.866;2023-06-22T06:50:43;24.10;66.12
68556;HTU21D;55544;51.032;5.866;2023-06-22T06:53:10;24.20;66.00
68556;HTU21D;55544;51.032;5.866;2023-06-22T06:55:35;24.29;65.66
68556;HTU21D;55544;51.032;5.866;2023-06-22T06:58:02;24.38;65.38
68556;HTU21D;55544;51.032;5.866;2023-06-22T07:00:29;24.47;65.44
68556;HTU21D;55544;51.032;5.866;2023-06-22T07:02:55;24.58;65.24
68556;HTU21D;55544;51.032;5.866;2023-06-22T07:05:21;24.66;64.93
68556;HTU21D;55544;51.032;5.866;2023-06-22T07:07:46;24.72;64.23
68556;HTU21D;55544;51.032;5.866;2023-06-22T07:10:12;24.72;63.89
68556;HTU21D;55544;51.032;5.866;2023-06-22T07:12:38;24.78;63.72
68556;HTU21D;55544;51.032;5.866;2023-06-22T07:15:06;24.79;63.18
68556;HTU21D;55544;51.032;5.866;2023-06-22T07:17:35;24.86;63.27
68556;HTU21D;55544;51.032;5.866;2023-06-22T07:20:02;24.92;63.57
68556;HTU21D;55544;51.032;5.866;2023-06-22T07:22:33;25.05;63.21
68556;HTU21D;55544;51.032;5.866;2023-06-22T07:24:58;25.12;62.86
68556;HTU21D;55544;51.032;5.866;2023-06-22T07:27:24;25.24;62.72
68556;HTU21D;55544;51.032;5.866;2023-06-22T07:29:50;25.42;62.75
68556;HTU21D;55544;51.032;5.866;2023-06-22T07:32:16;25.59;62.17
68556;HTU21D;55544;51.032;5.866;2023-06-22T07:34:42;25.75;61.38
68556;HTU21D;55544;51.032;5.866;2023-06-22T07:37:08;25.81;61.07
68556;HTU21D;55544;51.032;5.866;2023-06-22T07:39:33;25.82;60.46
68556;HTU21D;55544;51.032;5.866;2023-06-22T07:41:59;25.81;60.60
68556;HTU21D;55544;51.032;5.866;2023-06-22T07:44:25;25.83;60.79
68556;HTU21D;55544;51.032;5.866;2023-06-22T07:46:51;25.87;60.45
68556;HTU21D;55544;51.032;5.866;2023-06-22T07:49:17;25.87;60.36
68556;HTU21D;55544;51.032;5.866;2023-06-22T07:51:43;25.84;60.07
68556;HTU21D;55544;51.032;5.866;2023-06-22T07:54:09;25.90;60.18
68556;HTU21D;55544;51.032;5.866;2023-06-22T07:56:36;25.97;60.50
68556;HTU21D;55544;51.032;5.866;2023-06-22T07:59:02;26.10;60.32
68556;HTU21D;55544;51.032;5.866;2023-06-22T08:01:29;26.25;59.83
68556;HTU21D;55544;51.032;5.866;2023-06-22T08:03:55;26.37;59.80
68556;HTU21D;55544;51.032;5.866;2023-06-22T08:06:21;26.43;59.35
68556;HTU21D;55544;51.032;5.866;2023-06-22T08:08:46;26.39;58.99
68556;HTU21D;55544;51.032;5.866;2023-06-22T08:11:14;26.45;59.16
68556;HTU21D;55544;51.032;5.866;2023-06-22T08:13:40;26.48;58.93
68556;HTU21D;55544;51.032;5.866;2023-06-22T08:16:06;26.47;58.93
68556;HTU21D;55544;51.032;5.866;2023-06-22T08:18:33;26.46;59.09
68556;HTU21D;55544;51.032;5.866;2023-06-22T08:20:58;26.54;59.55
68556;HTU21D;55544;51.032;5.866;2023-06-22T08:23:24;26.79;59.39
68556;HTU21D;55544;51.032;5.866;2023-06-22T08:25:50;27.02;58.66
68556;HTU21D;55544;51.032;5.866;2023-06-22T08:28:16;27.21;58.41
68556;HTU21D;55544;51.032;5.866;2023-06-22T08:30:41;27.26;57.57
68556;HTU21D;55544;51.032;5.866;2023-06-22T08:33:07;27.26;57.20
68556;HTU21D;55544;51.032;5.866;2023-06-22T08:35:33;27.25;57.35
68556;HTU21D;55544;51.032;5.866;2023-06-22T08:37:58;27.31;57.54
68556;HTU21D;55544;51.032;5.866;2023-06-22T08:40:25;27.37;57.66
68556;HTU21D;55544;51.032;5.866;2023-06-22T08:42:51;27.47;57.36
68556;HTU21D;55544;51.032;5.866;2023-06-22T08:45:17;27.51;57.11
68556;HTU21D;55544;51.032;5.866;2023-06-22T08:47:43;27.54;57.11
68556;HTU21D;55544;51.032;5.866;2023-06-22T08:50:09;27.56;56.93
68556;HTU21D;55544;51.032;5.866;2023-06-22T08:52:36;27.55;56.77
68556;HTU21D;55544;51.032;5.866;2023-06-22T08:55:03;27.60;56.64
68556;HTU21D;55544;51.032;5.866;2023-06-22T08:57:29;27.66;56.73
68556;HTU21D;55544;51.032;5.866;2023-06-22T08:59:56;27.71;56.87
68556;HTU21D;55544;51.032;5.866;2023-06-22T09:02:27;27.81;56.88
68556;HTU21D;55544;51.032;5.866;2023-06-22T09:04:57;27.91;56.93
68556;HTU21D;55544;51.032;5.866;2023-06-22T09:07:24;27.99;56.84
68556;HTU21D;55544;51.032;5.866;2023-06-22T09:09:51;28.05;56.45
68556;HTU21D;55544;51.032;5.866;2023-06-22T09:12:18;28.09;56.32
68556;HTU21D;55544;51.032;5.866;2023-06-22T09:14:46;28.08;56.19
68556;HTU21D;55544;51.032;5.866;2023-06-22T09:17:12;28.10;56.06
68556;HTU21D;55544;51.032;5.866;2023-06-22T09:19:38;28.14;56.03
68556;HTU21D;55544;51.032;5.866;2023-06-22T09:22:04;28.20;56.01
68556;HTU21D;55544;51.032;5.866;2023-06-22T09:24:32;28.26;55.99
68556;HTU21D;55544;51.032;5.866;2023-06-22T09:26:58;28.25;56.32
68556;HTU21D;55544;51.032;5.866;2023-06-22T09:29:24;28.23;56.18
68556;HTU21D;55544;51.032;5.866;2023-06-22T09:31:50;28.18;56.11
68556;HTU21D;55544;51.032;5.866;2023-06-22T09:34:16;28.16;55.97
68556;HTU21D;55544;51.032;5.866;2023-06-22T09:36:46;28.12;56.09
68556;HTU21D;55544;51.032;5.866;2023-06-22T09:39:12;28.09;56.22
68556;HTU21D;55544;51.032;5.866;2023-06-22T09:41:37;28.06;56.11
68556;HTU21D;55544;51.032;5.866;2023-06-22T09:44:03;28.02;56.17
68556;HTU21D;55544;51.032;5.866;2023-06-22T09:46:29;27.95;56.34
68556;HTU21D;55544;51.032;5.866;2023-06-22T09:48:54;27.85;56.53
68556;HTU21D;55544;51.032;5.866;2023-06-22T09:51:20;27.78;56.89
68556;HTU21D;55544;51.032;5.866;2023-06-22T09:53:47;27.68;57.33
68556;HTU21D;55544;51.032;5.866;2023-06-22T09:56:13;27.63;57.50
68556;HTU21D;55544;51.032;5.866;2023-06-22T09:58:43;27.55;57.42
68556;HTU21D;55544;51.032;5.866;2023-06-22T10:01:09;27.46;57.45
68556;HTU21D;55544;51.032;5.866;2023-06-22T10:03:36;27.39;57.58
68556;HTU21D;55544;51.032;5.866;2023-06-22T10:06:02;27.34;57.74
68556;HTU21D;55544;51.032;5.866;2023-06-22T10:08:28;27.29;57.90
68556;HTU21D;55544;51.032;5.866;2023-06-22T10:10:54;27.21;58.09
68556;HTU21D;55544;51.032;5.866;2023-06-22T10:13:19;27.14;58.73
68556;HTU21D;55544;51.032;5.866;2023-06-22T10:15:46;27.08;59.62
68556;HTU21D;55544;51.032;5.866;2023-06-22T10:18:15;27.04;60.60
68556;HTU21D;55544;51.032;5.866;2023-06-22T10:20:42;26.99;61.63
68556;HTU21D;55544;51.032;5.866;2023-06-22T10:23:07;26.93;62.05
68556;HTU21D;55544;51.032;5.866;2023-06-22T10:25:33;26.90;62.66
68556;HTU21D;55544;51.032;5.866;2023-06-22T10:27:59;26.86;62.95
68556;HTU21D;55544;51.032;5.866;2023-06-22T10:30:25;26.77;63.58
68556;HTU21D;55544;51.032;5.866;2023-06-22T10:32:51;26.64;64.85
68556;HTU21D;55544;51.032;5.866;2023-06-22T10:35:16;26.56;65.61
68556;HTU21D;55544;51.032;5.866;2023-06-22T10:37:44;26.53;66.28
68556;HTU21D;55544;51.032;5.866;2023-06-22T10:40:11;26.47;66.78
68556;HTU21D;55544;51.032;5.866;2023-06-22T10:42:37;26.41;67.04
68556;HTU21D;55544;51.032;5.866;2023-06-22T10:45:03;26.38;67.45
68556;HTU21D;55544;51.032;5.866;2023-06-22T10:47:29;26.37;67.55
68556;HTU21D;55544;51.032;5.866;2023-06-22T10:49:54;26.32;67.91
68556;HTU21D;55544;51.032;5.866;2023-06-22T10:52:20;26.26;68.58
68556;HTU21D;55544;51.032;5.866;2023-06-22T10:54:46;26.17;69.23
68556;HTU21D;55544;51.032;5.866;2023-06-22T10:57:12;26.04;69.64
68556;HTU21D;55544;51.032;5.866;2023-06-22T10:59:37;25.92;70.26
68556;HTU21D;55544;51.032;5.866;2023-06-22T11:02:03;25.86;70.77
68556;HTU21D;55544;51.032;5.866;2023-06-22T11:04:29;25.79;71.21
68556;HTU21D;55544;51.032;5.866;2023-06-22T11:06:54;25.81;71.62
68556;HTU21D;55544;51.032;5.866;2023-06-22T11:09:21;25.92;71.75
68556;HTU21D;55544;51.032;5.866;2023-06-22T11:11:48;26.05;71.66
68556;HTU21D;55544;51.032;5.866;2023-06-22T11:14:14;26.24;72.07
68556;HTU21D;55544;51.032;5.866;2023-06-22T11:16:40;26.48;71.93
68556;HTU21D;55544;51.032;5.866;2023-06-22T11:19:06;26.70;71.11
68556;HTU21D;55544;51.032;5.866;2023-06-22T11:21:32;26.92;71.25
68556;HTU21D;55544;51.032;5.866;2023-06-22T11:23:58;27.15;70.57
68556;HTU21D;55544;51.032;5.866;2023-06-22T11:26:25;27.34;69.71
68556;HTU21D;55544;51.032;5.866;2023-06-22T11:28:54;27.55;69.07
68556;HTU21D;55544;51.032;5.866;2023-06-22T11:31:19;27.75;68.57
68556;HTU21D;55544;51.032;5.866;2023-06-22T11:33:45;27.98;67.41
68556;HTU21D;55544;51.032;5.866;2023-06-22T11:36:12;28.15;66.24
68556;HTU21D;55544;51.032;5.866;2023-06-22T11:38:38;28.19;66.10
68556;HTU21D;55544;51.032;5.866;2023-06-22T11:41:08;28.20;65.92
68556;HTU21D;55544;51.032;5.866;2023-06-22T11:43:34;28.19;65.61
68556;HTU21D;55544;51.032;5.866;2023-06-22T11:46:04;28.15;65.53
68556;HTU21D;55544;51.032;5.866;2023-06-22T11:48:30;28.05;65.72
68556;HTU21D;55544;51.032;5.866;2023-06-22T11:50:56;27.99;65.52
68556;HTU21D;55544;51.032;5.866;2023-06-22T11:53:25;27.86;65.11
68556;HTU21D;55544;51.032;5.866;2023-06-22T11:55:51;27.72;65.70
68556;HTU21D;55544;51.032;5.866;2023-06-22T11:58:18;27.67;66.00
68556;HTU21D;55544;51.032;5.866;2023-06-22T12:00:43;27.58;65.57
68556;HTU21D;55544;51.032;5.866;2023-06-22T12:03:10;27.49;65.46
68556;HTU21D;55544;51.032;5.866;2023-06-22T12:05:38;27.38;66.14
68556;HTU21D;55544;51.032;5.866;2023-06-22T12:08:04;27.31;66.21
68556;HTU21D;55544;51.032;5.866;2023-06-22T12:10:30;27.23;66.14
68556;HTU21D;55544;51.032;5.866;2023-06-22T12:12:56;27.16;66.60
68556;HTU21D;55544;51.032;5.866;2023-06-22T12:15:23;27.10;66.46
68556;HTU21D;55544;51.032;5.866;2023-06-22T12:17:49;27.04;66.28
68556;HTU21D;55544;51.032;5.866;2023-06-22T12:20:15;26.98;66.45
68556;HTU21D;55544;51.032;5.866;2023-06-22T12:22:41;26.93;66.74
68556;HTU21D;55544;51.032;5.866;2023-06-22T12:25:08;26.93;67.06
68556;HTU21D;55544;51.032;5.866;2023-06-22T12:27:34;26.85;66.87
68556;HTU21D;55544;51.032;5.866;2023-06-22T12:30:01;26.76;66.55
68556;HTU21D;55544;51.032;5.866;2023-06-22T12:32:26;26.64;66.62
68556;HTU21D;55544;51.032;5.866;2023-06-22T12:34:52;26.56;66.98
68556;HTU21D;55544;51.032;5.866;2023-06-22T12:37:18;26.54;67.44
68556;HTU21D;55544;51.032;5.866;2023-06-22T12:39:44;26.58;67.52
68556;HTU21D;55544;51.032;5.866;2023-06-22T12:42:10;26.60;67.05
68556;HTU21D;55544;51.032;5.866;2023-06-22T12:44:38;26.55;66.77
68556;HTU21D;55544;51.032;5.866;2023-06-22T12:47:07;26.51;66.49
68556;HTU21D;55544;51.032;5.866;2023-06-22T12:49:36;26.46;66.62
68556;HTU21D;55544;51.032;5.866;2023-06-22T12:52:03;26.45;66.94
68556;HTU21D;55544;51.032;5.866;2023-06-22T12:54:29;26.48;66.98
68556;HTU21D;55544;51.032;5.866;2023-06-22T12:56:55;26.48;66.64
68556;HTU21D;55544;51.032;5.866;2023-06-22T12:59:21;26.38;66.34
68556;HTU21D;55544;51.032;5.866;2023-06-22T13:01:47;26.31;66.42
68556;HTU21D;55544;51.032;5.866;2023-06-22T13:04:13;26.22;66.46
68556;HTU21D;55544;51.032;5.866;2023-06-22T13:06:44;26.13;66.11
68556;HTU21D;55544;51.032;5.866;2023-06-22T13:09:13;26.04;66.27
68556;HTU21D;55544;51.032;5.866;2023-06-22T13:11:39;25.94;66.43
68556;HTU21D;55544;51.032;5.866;2023-06-22T13:14:04;25.88;66.72
68556;HTU21D;55544;51.032;5.866;2023-06-22T13:16:30;25.81;66.81
68556;HTU21D;55544;51.032;5.866;2023-06-22T13:18:56;25.73;67.17
68556;HTU21D;55544;51.032;5.866;2023-06-22T13:21:22;25.73;67.38
68556;HTU21D;55544;51.032;5.866;2023-06-22T13:23:47;25.71;67.55
68556;HTU21D;55544;51.032;5.866;2023-06-22T13:26:13;25.67;67.45
68556;HTU21D;55544;51.032;5.866;2023-06-22T13:28:39;25.66;67.68
68556;HTU21D;55544;51.032;5.866;2023-06-22T13:31:04;25.65;67.84
68556;HTU21D;55544;51.032;5.866;2023-06-22T13:33:31;25.63;67.72
68556;HTU21D;55544;51.032;5.866;2023-06-22T13:35:56;25.56;67.78
68556;HTU21D;55544;51.032;5.866;2023-06-22T13:38:22;25.51;67.87
68556;HTU21D;55544;51.032;5.866;2023-06-22T13:40:48;25.39;67.76
68556;HTU21D;55544;51.032;5.866;2023-06-22T13:43:14;25.23;67.79
68556;HTU21D;55544;51.032;5.866;2023-06-22T13:45:41;25.13;68.01
68556;HTU21D;55544;51.032;5.866;2023-06-22T13:48:08;25.02;68.68
68556;HTU21D;55544;51.032;5.866;2023-06-22T13:50:34;25.01;68.88
68556;HTU21D;55544;51.032;5.866;2023-06-22T13:53:00;25.01;68.80
68556;HTU21D;55544;51.032;5.866;2023-06-22T13:55:26;24.95;68.75
68556;HTU21D;55544;51.032;5.866;2023-06-22T13:57:52;24.92;68.75
68556;HTU21D;55544;51.032;5.866;2023-06-22T14:00:18;24.89;68.84
68556;HTU21D;55544;51.032;5.866;2023-06-22T14:02:44;24.85;68.94
68556;HTU21D;55544;51.032;5.866;2023-06-22T14:05:10;24.78;69.26
68556;HTU21D;55544;51.032;5.866;2023-06-22T14:07:36;24.72;69.43
68556;HTU21D;55544;51.032;5.866;2023-06-22T14:10:03;24.66;69.66
68556;HTU21D;55544;51.032;5.866;2023-06-22T14:12:29;24.60;69.83
68556;HTU21D;55544;51.032;5.866;2023-06-22T14:14:55;24.53;70.35
68556;HTU21D;55544;51.032;5.866;2023-06-22T14:17:21;24.46;71.13
68556;HTU21D;55544;51.032;5.866;2023-06-22T14:19:51;24.36;71.77
68556;HTU21D;55544;51.032;5.866;2023-06-22T14:22:22;24.25;72.37
68556;HTU21D;55544;51.032;5.866;2023-06-22T14:24:48;24.16;72.83
68556;HTU21D;55544;51.032;5.866;2023-06-22T14:27:15;24.11;73.21
68556;HTU21D;55544;51.032;5.866;2023-06-22T14:29:41;24.09;73.28
68556;HTU21D;55544;51.032;5.866;2023-06-22T14:32:07;24.09;73.74
68556;HTU21D;55544;51.032;5.866;2023-06-22T14:34:33;24.09;73.48
68556;HTU21D;55544;51.032;5.866;2023-06-22T14:37:09;24.02;73.63
68556;HTU21D;55544;51.032;5.866;2023-06-22T14:39:35;24.00;74.04
68556;HTU21D;55544;51.032;5.866;2023-06-22T14:42:01;23.97;74.02
68556;HTU21D;55544;51.032;5.866;2023-06-22T14:44:29;23.95;74.12
68556;HTU21D;55544;51.032;5.866;2023-06-22T14:46:58;23.89;74.17
68556;HTU21D;55544;51.032;5.866;2023-06-22T14:49:24;23.84;74.37
68556;HTU21D;55544;51.032;5.866;2023-06-22T14:51:50;23.81;74.65
68556;HTU21D;55544;51.032;5.866;2023-06-22T14:54:16;23.77;74.71
68556;HTU21D;55544;51.032;5.866;2023-06-22T14:56:41;23.72;74.80
68556;HTU21D;55544;51.032;5.866;2023-06-22T14:59:09;23.67;75.25
68556;HTU21D;55544;51.032;5.866;2023-06-22T15:01:35;23.61;75.32
68556;HTU21D;55544;51.032;5.866;2023-06-22T15:04:00;23.58;75.76
68556;HTU21D;55544;51.032;5.866;2023-06-22T15:06:27;23.53;75.96
68556;HTU21D;55544;51.032;5.866;2023-06-22T15:08:53;23.54;76.18
68556;HTU21D;55544;51.032;5.866;2023-06-22T15:11:20;23.46;76.27
68556;HTU21D;55544;51.032;5.866;2023-06-22T15:13:46;23.43;76.47
68556;HTU21D;55544;51.032;5.866;2023-06-22T15:16:12;23.36;76.63
68556;HTU21D;55544;51.032;5.866;2023-06-22T15:18:38;23.27;76.91